sensor_id;sensor_type;location;lat;lon;timestamp;P1;durP1;ratioP1;P2;durP2;ratioP2
24261;SDS011;12385;51.412;5.540;2022-08-18T00:01:59;67.82;;;49.38;;
24261;SDS011;12385;51.412;5.540;2022-08-18T00:04:35;75.22;;;51.38;;
24261;SDS011;12385;51.412;5.540;2022-08-18T00:07:06;82.57;;;53.58;;
24261;SDS011;12385;51.412;5.540;2022-08-18T00:09:34;83.20;;;53.03;;
24261;SDS011;12385;51.412;5.540;2022-08-18T00:12:02;81.20;;;53.53;;
24261;SDS011;12385;51.412;5.540;2022-08-18T00:14:32;84.90;;;55.38;;
24261;SDS011;12385;51.412;5.540;2022-08-18T00:16:58;74.13;;;51.42;;
24261;SDS011;12385;51.412;5.540;2022-08-18T00:19:24;86.95;;;53.92;;
24261;SDS011;12385;51.412;5.540;2022-08-18T00:21:51;86.10;;;54.70;;
24261;SDS011;12385;51.412;5.540;2022-08-18T00:24:16;107.63;;;59.22;;
24261;SDS011;12385;51.412;5.540;2022-08-18T00:26:42;99.32;;;56.78;;
24261;SDS011;12385;51.412;5.540;2022-08-18T00:29:07;92.68;;;56.67;;
24261;SDS011;12385;51.412;5.540;2022-08-18T00:31:33;91.93;;;54.60;;
24261;SDS011;12385;51.412;5.540;2022-08-18T00:33:59;100.50;;;57.17;;
24261;SDS011;12385;51.412;5.540;2022-08-18T00:36:25;97.00;;;57.90;;
24261;SDS011;12385;51.412;5.540;2022-08-18T00:38:51;92.57;;;55.22;;
24261;SDS011;12385;51.412;5.540;2022-08-18T00:41:17;91.47;;;55.95;;
24261;SDS011;12385;51.412;5.540;2022-08-18T00:43:46;86.95;;;53.75;;
24261;SDS011;12385;51.412;5.540;2022-08-18T00:46:32;125.03;;;63.15;;
24261;SDS011;12385;51.412;5.540;2022-08-18T00:48:59;99.75;;;56.20;;
24261;SDS011;12385;51.412;5.540;2022-08-18T00:51:34;92.20;;;55.40;;
24261;SDS011;12385;51.412;5.540;2022-08-18T00:56:48;90.90;;;57.20;;
24261;SDS011;12385;51.412;5.540;2022-08-18T00:59:22;79.10;;;52.35;;
24261;SDS011;12385;51.412;5.540;2022-08-18T01:02:02;81.95;;;53.10;;
24261;SDS011;12385;51.412;5.540;2022-08-18T01:04:44;81.00;;;51.30;;
24261;SDS011;12385;51.412;5.540;2022-08-18T01:07:45;82.72;;;51.55;;
24261;SDS011;12385;51.412;5.540;2022-08-18T01:12:44;93.18;;;56.75;;
24261;SDS011;12385;51.412;5.540;2022-08-18T01:15:13;79.20;;;52.67;;
24261;SDS011;12385;51.412;5.540;2022-08-18T01:17:40;84.22;;;52.95;;
24261;SDS011;12385;51.412;5.540;2022-08-18T01:20:35;82.75;;;54.08;;
24261;SDS011;12385;51.412;5.540;2022-08-18T01:23:26;89.28;;;54.60;;
24261;SDS011;12385;51.412;5.540;2022-08-18T01:25:53;79.35;;;52.75;;
24261;SDS011;12385;51.412;5.540;2022-08-18T01:28:46;86.22;;;55.97;;
24261;SDS011;12385;51.412;5.540;2022-08-18T01:31:11;85.78;;;55.53;;
24261;SDS011;12385;51.412;5.540;2022-08-18T01:33:53;93.97;;;56.22;;
24261;SDS011;12385;51.412;5.540;2022-08-18T01:36:20;89.43;;;57.13;;
24261;SDS011;12385;51.412;5.540;2022-08-18T01:38:49;83.72;;;55.03;;
24261;SDS011;12385;51.412;5.540;2022-08-18T01:41:17;86.78;;;55.72;;
24261;SDS011;12385;51.412;5.540;2022-08-18T01:43:45;84.45;;;56.38;;
24261;SDS011;12385;51.412;5.540;2022-08-18T01:46:12;85.53;;;56.03;;
24261;SDS011;12385;51.412;5.540;2022-08-18T01:48:38;93.97;;;60.20;;
24261;SDS011;12385;51.412;5.540;2022-08-18T01:51:07;89.72;;;58.50;;
24261;SDS011;12385;51.412;5.540;2022-08-18T01:53:34;87.05;;;56.10;;
24261;SDS011;12385;51.412;5.540;2022-08-18T01:56:00;79.72;;;53.80;;
24261;SDS011;12385;51.412;5.540;2022-08-18T01:58:28;90.45;;;56.40;;
24261;SDS011;12385;51.412;5.540;2022-08-18T02:00:54;95.28;;;58.78;;
24261;SDS011;12385;51.412;5.540;2022-08-18T02:03:22;86.13;;;56.05;;
24261;SDS011;12385;51.412;5.540;2022-08-18T02:05:51;84.60;;;57.43;;
24261;SDS011;12385;51.412;5.540;2022-08-18T02:08:24;80.93;;;55.78;;
24261;SDS011;12385;51.412;5.540;2022-08-18T02:10:49;86.97;;;57.55;;
24261;SDS011;12385;51.412;5.540;2022-08-18T02:13:15;86.40;;;56.70;;
24261;SDS011;12385;51.412;5.540;2022-08-18T02:15:40;75.00;;;52.55;;
24261;SDS011;12385;51.412;5.540;2022-08-18T02:18:11;90.25;;;58.00;;
24261;SDS011;12385;51.412;5.540;2022-08-18T02:20:39;85.55;;;56.92;;
24261;SDS011;12385;51.412;5.540;2022-08-18T02:23:04;81.43;;;56.72;;
24261;SDS011;12385;51.412;5.540;2022-08-18T02:25:30;93.40;;;58.97;;
24261;SDS011;12385;51.412;5.540;2022-08-18T02:27:56;82.22;;;55.20;;
24261;SDS011;12385;51.412;5.540;2022-08-18T02:30:22;91.80;;;59.10;;
24261;SDS011;12385;51.412;5.540;2022-08-18T02:32:47;85.07;;;56.13;;
24261;SDS011;12385;51.412;5.540;2022-08-18T02:35:13;83.97;;;55.85;;
24261;SDS011;12385;51.412;5.540;2022-08-18T02:37:40;81.15;;;54.45;;
24261;SDS011;12385;51.412;5.540;2022-08-18T02:40:07;86.75;;;58.08;;
24261;SDS011;12385;51.412;5.540;2022-08-18T02:42:34;83.47;;;55.33;;
24261;SDS011;12385;51.412;5.540;2022-08-18T02:44:59;73.10;;;51.80;;
24261;SDS011;12385;51.412;5.540;2022-08-18T02:47:25;75.70;;;52.28;;
24261;SDS011;12385;51.412;5.540;2022-08-18T02:49:50;65.25;;;47.28;;
24261;SDS011;12385;51.412;5.540;2022-08-18T02:52:16;69.20;;;50.13;;
24261;SDS011;12385;51.412;5.540;2022-08-18T02:54:42;72.38;;;51.38;;
24261;SDS011;12385;51.412;5.540;2022-08-18T02:57:08;68.70;;;49.63;;
24261;SDS011;12385;51.412;5.540;2022-08-18T02:59:35;74.75;;;51.90;;
24261;SDS011;12385;51.412;5.540;2022-08-18T03:02:03;71.45;;;50.65;;
24261;SDS011;12385;51.412;5.540;2022-08-18T03:04:30;91.28;;;56.83;;
24261;SDS011;12385;51.412;5.540;2022-08-18T03:06:58;96.05;;;57.95;;
24261;SDS011;12385;51.412;5.540;2022-08-18T03:09:27;96.83;;;57.97;;
24261;SDS011;12385;51.412;5.540;2022-08-18T03:11:53;107.60;;;60.45;;
24261;SDS011;12385;51.412;5.540;2022-08-18T03:14:19;87.43;;;53.35;;
24261;SDS011;12385;51.412;5.540;2022-08-18T03:16:45;90.75;;;57.38;;
24261;SDS011;12385;51.412;5.540;2022-08-18T03:19:12;92.18;;;56.72;;
24261;SDS011;12385;51.412;5.540;2022-08-18T03:21:42;103.50;;;58.30;;
24261;SDS011;12385;51.412;5.540;2022-08-18T03:24:10;110.88;;;61.97;;
24261;SDS011;12385;51.412;5.540;2022-08-18T03:26:38;107.07;;;60.10;;
24261;SDS011;12385;51.412;5.540;2022-08-18T03:29:06;111.22;;;61.35;;
24261;SDS011;12385;51.412;5.540;2022-08-18T03:31:33;98.97;;;60.20;;
24261;SDS011;12385;51.412;5.540;2022-08-18T03:34:00;91.07;;;57.25;;
24261;SDS011;12385;51.412;5.540;2022-08-18T03:36:27;89.80;;;57.85;;
24261;SDS011;12385;51.412;5.540;2022-08-18T03:41:23;108.70;;;62.30;;
24261;SDS011;12385;51.412;5.540;2022-08-18T03:43:50;101.30;;;61.28;;
24261;SDS011;12385;51.412;5.540;2022-08-18T03:46:17;98.80;;;59.78;;
24261;SDS011;12385;51.412;5.540;2022-08-18T03:48:44;107.70;;;60.65;;
24261;SDS011;12385;51.412;5.540;2022-08-18T03:51:15;106.50;;;62.53;;
24261;SDS011;12385;51.412;5.540;2022-08-18T03:53:44;103.95;;;61.00;;
24261;SDS011;12385;51.412;5.540;2022-08-18T03:56:13;128.82;;;65.38;;
24261;SDS011;12385;51.412;5.540;2022-08-18T03:58:42;159.95;;;71.10;;
24261;SDS011;12385;51.412;5.540;2022-08-18T04:01:16;106.78;;;59.85;;
24261;SDS011;12385;51.412;5.540;2022-08-18T04:03:46;99.25;;;60.10;;
24261;SDS011;12385;51.412;5.540;2022-08-18T04:06:15;109.93;;;59.90;;
24261;SDS011;12385;51.412;5.540;2022-08-18T04:08:52;118.55;;;62.83;;
24261;SDS011;12385;51.412;5.540;2022-08-18T04:11:20;129.63;;;63.95;;
24261;SDS011;12385;51.412;5.540;2022-08-18T04:13:46;100.15;;;59.88;;
24261;SDS011;12385;51.412;5.540;2022-08-18T04:16:12;118.95;;;64.55;;
24261;SDS011;12385;51.412;5.540;2022-08-18T04:18:38;101.43;;;59.85;;
24261;SDS011;12385;51.412;5.540;2022-08-18T04:21:05;111.57;;;62.38;;
24261;SDS011;12385;51.412;5.540;2022-08-18T04:23:34;101.93;;;58.53;;
24261;SDS011;12385;51.412;5.540;2022-08-18T04:26:01;103.00;;;60.35;;
24261;SDS011;12385;51.412;5.540;2022-08-18T04:28:28;100.78;;;60.08;;
24261;SDS011;12385;51.412;5.540;2022-08-18T04:30:54;155.93;;;71.10;;
24261;SDS011;12385;51.412;5.540;2022-08-18T04:33:27;92.22;;;58.50;;
24261;SDS011;12385;51.412;5.540;2022-08-18T04:35:53;100.82;;;60.00;;
24261;SDS011;12385;51.412;5.540;2022-08-18T04:38:19;108.78;;;62.25;;
24261;SDS011;12385;51.412;5.540;2022-08-18T04:40:45;96.57;;;58.08;;
24261;SDS011;12385;51.412;5.540;2022-08-18T04:43:11;112.40;;;63.78;;
24261;SDS011;12385;51.412;5.540;2022-08-18T04:45:45;106.35;;;62.58;;
24261;SDS011;12385;51.412;5.540;2022-08-18T04:48:11;109.22;;;61.25;;
24261;SDS011;12385;51.412;5.540;2022-08-18T04:50:40;100.13;;;59.90;;
24261;SDS011;12385;51.412;5.540;2022-08-18T04:53:06;127.90;;;67.10;;
24261;SDS011;12385;51.412;5.540;2022-08-18T04:55:52;97.53;;;58.72;;
24261;SDS011;12385;51.412;5.540;2022-08-18T04:58:20;104.00;;;62.10;;
24261;SDS011;12385;51.412;5.540;2022-08-18T05:00:55;102.22;;;60.30;;
24261;SDS011;12385;51.412;5.540;2022-08-18T05:03:25;109.80;;;63.03;;
24261;SDS011;12385;51.412;5.540;2022-08-18T05:05:55;89.78;;;56.42;;
24261;SDS011;12385;51.412;5.540;2022-08-18T05:08:23;99.28;;;58.50;;
24261;SDS011;12385;51.412;5.540;2022-08-18T05:10:53;97.50;;;58.88;;
24261;SDS011;12385;51.412;5.540;2022-08-18T05:13:21;105.03;;;60.78;;
24261;SDS011;12385;51.412;5.540;2022-08-18T05:15:56;93.68;;;56.55;;
24261;SDS011;12385;51.412;5.540;2022-08-18T05:18:27;106.60;;;59.10;;
24261;SDS011;12385;51.412;5.540;2022-08-18T05:20:57;95.28;;;57.70;;
24261;SDS011;12385;51.412;5.540;2022-08-18T05:23:24;110.53;;;62.15;;
24261;SDS011;12385;51.412;5.540;2022-08-18T05:25:55;102.57;;;60.75;;
24261;SDS011;12385;51.412;5.540;2022-08-18T05:28:21;95.90;;;58.95;;
24261;SDS011;12385;51.412;5.540;2022-08-18T05:30:47;99.35;;;59.25;;
24261;SDS011;12385;51.412;5.540;2022-08-18T05:33:12;103.35;;;61.08;;
24261;SDS011;12385;51.412;5.540;2022-08-18T05:35:42;98.88;;;59.47;;
24261;SDS011;12385;51.412;5.540;2022-08-18T05:38:26;106.78;;;59.20;;
24261;SDS011;12385;51.412;5.540;2022-08-18T05:41:01;105.72;;;59.70;;
24261;SDS011;12385;51.412;5.540;2022-08-18T05:43:35;106.63;;;60.65;;
24261;SDS011;12385;51.412;5.540;2022-08-18T05:46:02;112.75;;;62.25;;
24261;SDS011;12385;51.412;5.540;2022-08-18T05:48:30;113.90;;;60.88;;
24261;SDS011;12385;51.412;5.540;2022-08-18T05:50:57;103.75;;;60.20;;
24261;SDS011;12385;51.412;5.540;2022-08-18T05:53:27;101.93;;;59.50;;
24261;SDS011;12385;51.412;5.540;2022-08-18T05:56:13;96.40;;;58.10;;
24261;SDS011;12385;51.412;5.540;2022-08-18T05:58:58;89.00;;;56.13;;
24261;SDS011;12385;51.412;5.540;2022-08-18T06:01:28;95.47;;;56.03;;
24261;SDS011;12385;51.412;5.540;2022-08-18T06:04:01;99.88;;;58.35;;
24261;SDS011;12385;51.412;5.540;2022-08-18T06:06:41;84.07;;;52.63;;
24261;SDS011;12385;51.412;5.540;2022-08-18T06:12:04;88.60;;;53.15;;
24261;SDS011;12385;51.412;5.540;2022-08-18T06:14:40;82.47;;;52.38;;
24261;SDS011;12385;51.412;5.540;2022-08-18T06:17:13;80.50;;;51.55;;
24261;SDS011;12385;51.412;5.540;2022-08-18T06:22:52;81.22;;;51.28;;
24261;SDS011;12385;51.412;5.540;2022-08-18T06:28:19;75.03;;;49.33;;
24261;SDS011;12385;51.412;5.540;2022-08-18T06:30:51;78.97;;;49.65;;
24261;SDS011;12385;51.412;5.540;2022-08-18T06:36:34;67.15;;;44.55;;
24261;SDS011;12385;51.412;5.540;2022-08-18T06:39:31;72.95;;;46.20;;
24261;SDS011;12385;51.412;5.540;2022-08-18T06:42:03;71.82;;;47.95;;
24261;SDS011;12385;51.412;5.540;2022-08-18T06:44:33;78.47;;;48.70;;
24261;SDS011;12385;51.412;5.540;2022-08-18T06:47:48;65.53;;;45.50;;
24261;SDS011;12385;51.412;5.540;2022-08-18T06:50:13;60.70;;;42.53;;
24261;SDS011;12385;51.412;5.540;2022-08-18T06:52:57;55.67;;;40.28;;
24261;SDS011;12385;51.412;5.540;2022-08-18T06:58:03;59.00;;;41.00;;
24261;SDS011;12385;51.412;5.540;2022-08-18T07:00:32;57.85;;;41.00;;
24261;SDS011;12385;51.412;5.540;2022-08-18T07:05:35;44.88;;;35.33;;
24261;SDS011;12385;51.412;5.540;2022-08-18T07:08:09;51.50;;;37.22;;
24261;SDS011;12385;51.412;5.540;2022-08-18T07:10:40;45.00;;;35.22;;
24261;SDS011;12385;51.412;5.540;2022-08-18T07:15:40;47.45;;;35.65;;
24261;SDS011;12385;51.412;5.540;2022-08-18T07:18:13;50.67;;;36.67;;
24261;SDS011;12385;51.412;5.540;2022-08-18T07:20:46;51.15;;;36.08;;
24261;SDS011;12385;51.412;5.540;2022-08-18T07:28:40;46.67;;;34.53;;
24261;SDS011;12385;51.412;5.540;2022-08-18T07:33:42;45.50;;;32.95;;
24261;SDS011;12385;51.412;5.540;2022-08-18T07:36:15;39.03;;;29.17;;
24261;SDS011;12385;51.412;5.540;2022-08-18T07:38:53;35.00;;;27.30;;
24261;SDS011;12385;51.412;5.540;2022-08-18T07:42:37;32.88;;;26.05;;
24261;SDS011;12385;51.412;5.540;2022-08-18T07:45:03;26.80;;;22.42;;
24261;SDS011;12385;51.412;5.540;2022-08-18T07:47:46;29.70;;;22.30;;
24261;SDS011;12385;51.412;5.540;2022-08-18T07:50:16;28.63;;;21.30;;
24261;SDS011;12385;51.412;5.540;2022-08-18T07:52:58;30.20;;;22.23;;
24261;SDS011;12385;51.412;5.540;2022-08-18T07:55:46;26.48;;;21.10;;
24261;SDS011;12385;51.412;5.540;2022-08-18T07:58:39;27.38;;;21.88;;
24261;SDS011;12385;51.412;5.540;2022-08-18T08:01:26;25.52;;;20.67;;
24261;SDS011;12385;51.412;5.540;2022-08-18T08:06:53;26.50;;;21.85;;
24261;SDS011;12385;51.412;5.540;2022-08-18T08:10:17;26.60;;;21.67;;
24261;SDS011;12385;51.412;5.540;2022-08-18T08:15:07;25.55;;;18.30;;
24261;SDS011;12385;51.412;5.540;2022-08-18T08:20:35;26.65;;;18.92;;
24261;SDS011;12385;51.412;5.540;2022-08-18T08:23:29;28.30;;;19.80;;
24261;SDS011;12385;51.412;5.540;2022-08-18T08:26:09;36.83;;;20.50;;
24261;SDS011;12385;51.412;5.540;2022-08-18T08:29:02;22.73;;;18.90;;
24261;SDS011;12385;51.412;5.540;2022-08-18T08:37:00;24.52;;;18.15;;
24261;SDS011;12385;51.412;5.540;2022-08-18T08:39:34;23.13;;;18.13;;
24261;SDS011;12385;51.412;5.540;2022-08-18T08:42:05;23.50;;;18.38;;
24261;SDS011;12385;51.412;5.540;2022-08-18T08:44:49;25.10;;;19.08;;
24261;SDS011;12385;51.412;5.540;2022-08-18T08:52:38;28.05;;;18.38;;
24261;SDS011;12385;51.412;5.540;2022-08-18T08:55:18;22.65;;;17.58;;
24261;SDS011;12385;51.412;5.540;2022-08-18T08:58:36;21.50;;;16.40;;
24261;SDS011;12385;51.412;5.540;2022-08-18T09:00:47;19.52;;;14.40;;
24261;SDS011;12385;51.412;5.540;2022-08-18T09:09:20;19.80;;;13.93;;
24261;SDS011;12385;51.412;5.540;2022-08-18T09:12:07;18.20;;;13.73;;
24261;SDS011;12385;51.412;5.540;2022-08-18T09:15:00;20.48;;;13.65;;
24261;SDS011;12385;51.412;5.540;2022-08-18T09:20:41;18.60;;;12.27;;
24261;SDS011;12385;51.412;5.540;2022-08-18T09:23:07;17.08;;;12.15;;
24261;SDS011;12385;51.412;5.540;2022-08-18T09:28:10;15.80;;;11.27;;
24261;SDS011;12385;51.412;5.540;2022-08-18T09:41:52;15.80;;;11.05;;
24261;SDS011;12385;51.412;5.540;2022-08-18T09:47:57;13.27;;;10.85;;
24261;SDS011;12385;51.412;5.540;2022-08-18T09:54:59;13.77;;;11.68;;
24261;SDS011;12385;51.412;5.540;2022-08-18T10:16:13;16.42;;;11.98;;
24261;SDS011;12385;51.412;5.540;2022-08-18T10:24:33;12.40;;;10.60;;
24261;SDS011;12385;51.412;5.540;2022-08-18T10:27:00;14.40;;;12.05;;
24261;SDS011;12385;51.412;5.540;2022-08-18T10:37:20;11.38;;;8.85;;
24261;SDS011;12385;51.412;5.540;2022-08-18T10:42:37;14.20;;;9.23;;
24261;SDS011;12385;51.412;5.540;2022-08-18T10:50:39;10.23;;;8.60;;
24261;SDS011;12385;51.412;5.540;2022-08-18T10:59:14;11.25;;;8.90;;
24261;SDS011;12385;51.412;5.540;2022-08-18T11:04:48;9.90;;;8.43;;
24261;SDS011;12385;51.412;5.540;2022-08-18T11:07:20;11.10;;;9.17;;
24261;SDS011;12385;51.412;5.540;2022-08-18T11:09:49;10.70;;;8.32;;
24261;SDS011;12385;51.412;5.540;2022-08-18T11:15:16;9.18;;;7.60;;
24261;SDS011;12385;51.412;5.540;2022-08-18T11:20:33;10.32;;;6.97;;
24261;SDS011;12385;51.412;5.540;2022-08-18T11:23:00;10.68;;;8.32;;
24261;SDS011;12385;51.412;5.540;2022-08-18T11:25:29;11.35;;;6.97;;
24261;SDS011;12385;51.412;5.540;2022-08-18T11:27:57;7.60;;;6.13;;
24261;SDS011;12385;51.412;5.540;2022-08-18T11:30:31;12.32;;;6.05;;
24261;SDS011;12385;51.412;5.540;2022-08-18T11:33:01;10.52;;;6.47;;
24261;SDS011;12385;51.412;5.540;2022-08-18T11:35:49;13.30;;;7.30;;
24261;SDS011;12385;51.412;5.540;2022-08-18T11:38:18;11.18;;;5.90;;
24261;SDS011;12385;51.412;5.540;2022-08-18T11:40:44;8.63;;;5.88;;
24261;SDS011;12385;51.412;5.540;2022-08-18T11:43:16;8.27;;;5.07;;
24261;SDS011;12385;51.412;5.540;2022-08-18T11:48:10;7.53;;;5.40;;
24261;SDS011;12385;51.412;5.540;2022-08-18T11:56:21;7.05;;;5.68;;
24261;SDS011;12385;51.412;5.540;2022-08-18T11:58:57;8.27;;;6.55;;
24261;SDS011;12385;51.412;5.540;2022-08-18T12:01:35;10.38;;;6.68;;
24261;SDS011;12385;51.412;5.540;2022-08-18T12:09:19;10.13;;;6.88;;
24261;SDS011;12385;51.412;5.540;2022-08-18T12:17:24;8.57;;;6.72;;
24261;SDS011;12385;51.412;5.540;2022-08-18T12:19:53;8.48;;;5.85;;
24261;SDS011;12385;51.412;5.540;2022-08-18T12:22:22;8.27;;;5.93;;
24261;SDS011;12385;51.412;5.540;2022-08-18T12:24:50;7.75;;;5.78;;
24261;SDS011;12385;51.412;5.540;2022-08-18T12:27:17;9.77;;;5.20;;
24261;SDS011;12385;51.412;5.540;2022-08-18T12:29:44;9.70;;;5.72;;
24261;SDS011;12385;51.412;5.540;2022-08-18T12:32:10;7.93;;;5.35;;
24261;SDS011;12385;51.412;5.540;2022-08-18T12:34:36;7.20;;;5.80;;
24261;SDS011;12385;51.412;5.540;2022-08-18T12:37:02;6.78;;;4.97;;
24261;SDS011;12385;51.412;5.540;2022-08-18T12:39:31;7.18;;;4.68;;
24261;SDS011;12385;51.412;5.540;2022-08-18T12:41:56;6.63;;;5.30;;
24261;SDS011;12385;51.412;5.540;2022-08-18T12:44:22;6.60;;;4.68;;
24261;SDS011;12385;51.412;5.540;2022-08-18T12:46:48;7.10;;;6.45;;
24261;SDS011;12385;51.412;5.540;2022-08-18T12:49:24;5.50;;;4.68;;
24261;SDS011;12385;51.412;5.540;2022-08-18T12:51:50;8.70;;;5.93;;
24261;SDS011;12385;51.412;5.540;2022-08-18T12:54:19;10.30;;;5.85;;
24261;SDS011;12385;51.412;5.540;2022-08-18T12:56:47;7.57;;;5.80;;
24261;SDS011;12385;51.412;5.540;2022-08-18T12:59:15;7.95;;;5.72;;
24261;SDS011;12385;51.412;5.540;2022-08-18T13:01:41;5.72;;;4.75;;
24261;SDS011;12385;51.412;5.540;2022-08-18T13:04:07;7.20;;;4.65;;
24261;SDS011;12385;51.412;5.540;2022-08-18T13:06:33;8.35;;;5.18;;
24261;SDS011;12385;51.412;5.540;2022-08-18T13:09:02;7.80;;;5.28;;
24261;SDS011;12385;51.412;5.540;2022-08-18T13:11:28;5.57;;;5.05;;
24261;SDS011;12385;51.412;5.540;2022-08-18T13:13:54;7.05;;;5.05;;
24261;SDS011;12385;51.412;5.540;2022-08-18T13:16:20;8.20;;;6.25;;
24261;SDS011;12385;51.412;5.540;2022-08-18T13:18:46;6.63;;;4.85;;
24261;SDS011;12385;51.412;5.540;2022-08-18T13:21:12;8.25;;;5.40;;
24261;SDS011;12385;51.412;5.540;2022-08-18T13:23:39;6.00;;;5.40;;
24261;SDS011;12385;51.412;5.540;2022-08-18T13:26:07;6.93;;;5.00;;
24261;SDS011;12385;51.412;5.540;2022-08-18T13:28:36;6.28;;;5.07;;
24261;SDS011;12385;51.412;5.540;2022-08-18T13:31:02;9.98;;;5.15;;
24261;SDS011;12385;51.412;5.540;2022-08-18T13:33:28;5.60;;;4.68;;
24261;SDS011;12385;51.412;5.540;2022-08-18T13:35:55;6.45;;;4.80;;
24261;SDS011;12385;51.412;5.540;2022-08-18T13:38:21;7.45;;;4.43;;
24261;SDS011;12385;51.412;5.540;2022-08-18T13:40:49;6.45;;;4.50;;
24261;SDS011;12385;51.412;5.540;2022-08-18T13:43:16;8.13;;;4.80;;
24261;SDS011;12385;51.412;5.540;2022-08-18T13:45:45;8.07;;;4.80;;
24261;SDS011;12385;51.412;5.540;2022-08-18T13:48:10;9.50;;;4.55;;
24261;SDS011;12385;51.412;5.540;2022-08-18T13:50:37;7.15;;;5.10;;
24261;SDS011;12385;51.412;5.540;2022-08-18T13:53:04;8.02;;;4.70;;
24261;SDS011;12385;51.412;5.540;2022-08-18T13:55:36;6.63;;;5.15;;
24261;SDS011;12385;51.412;5.540;2022-08-18T13:58:02;7.00;;;4.82;;
24261;SDS011;12385;51.412;5.540;2022-08-18T14:00:28;10.40;;;4.53;;
24261;SDS011;12385;51.412;5.540;2022-08-18T14:02:54;7.75;;;4.68;;
24261;SDS011;12385;51.412;5.540;2022-08-18T14:05:21;5.28;;;4.60;;
24261;SDS011;12385;51.412;5.540;2022-08-18T14:07:47;6.15;;;4.22;;
24261;SDS011;12385;51.412;5.540;2022-08-18T14:10:13;4.90;;;4.30;;
24261;SDS011;12385;51.412;5.540;2022-08-18T14:12:41;7.30;;;4.82;;
24261;SDS011;12385;51.412;5.540;2022-08-18T14:15:08;6.90;;;4.47;;
24261;SDS011;12385;51.412;5.540;2022-08-18T14:17:36;6.47;;;4.28;;
24261;SDS011;12385;51.412;5.540;2022-08-18T14:20:03;8.65;;;4.97;;
24261;SDS011;12385;51.412;5.540;2022-08-18T14:22:52;5.10;;;4.45;;
24261;SDS011;12385;51.412;5.540;2022-08-18T14:25:38;5.55;;;4.35;;
24261;SDS011;12385;51.412;5.540;2022-08-18T14:28:23;4.25;;;3.85;;
24261;SDS011;12385;51.412;5.540;2022-08-18T14:30:48;6.72;;;3.80;;
24261;SDS011;12385;51.412;5.540;2022-08-18T14:33:16;5.53;;;3.80;;
24261;SDS011;12385;51.412;5.540;2022-08-18T14:35:43;6.60;;;4.07;;
24261;SDS011;12385;51.412;5.540;2022-08-18T14:38:09;5.35;;;3.78;;
24261;SDS011;12385;51.412;5.540;2022-08-18T14:40:34;5.15;;;3.20;;
24261;SDS011;12385;51.412;5.540;2022-08-18T14:43:02;5.22;;;3.38;;
24261;SDS011;12385;51.412;5.540;2022-08-18T14:45:28;5.22;;;2.90;;
24261;SDS011;12385;51.412;5.540;2022-08-18T14:47:54;6.57;;;3.30;;
24261;SDS011;12385;51.412;5.540;2022-08-18T14:50:21;8.20;;;3.58;;
24261;SDS011;12385;51.412;5.540;2022-08-18T14:52:47;4.00;;;3.17;;
24261;SDS011;12385;51.412;5.540;2022-08-18T14:55:14;5.53;;;3.55;;
24261;SDS011;12385;51.412;5.540;2022-08-18T14:57:41;4.53;;;2.55;;
24261;SDS011;12385;51.412;5.540;2022-08-18T15:00:08;4.15;;;2.55;;
24261;SDS011;12385;51.412;5.540;2022-08-18T15:02:39;3.42;;;2.60;;
24261;SDS011;12385;51.412;5.540;2022-08-18T15:05:06;4.75;;;2.92;;
24261;SDS011;12385;51.412;5.540;2022-08-18T15:07:33;3.80;;;2.70;;
24261;SDS011;12385;51.412;5.540;2022-08-18T15:12:31;3.17;;;2.60;;
24261;SDS011;12385;51.412;5.540;2022-08-18T15:14:56;3.58;;;2.63;;
24261;SDS011;12385;51.412;5.540;2022-08-18T15:17:23;3.20;;;2.75;;
24261;SDS011;12385;51.412;5.540;2022-08-18T15:19:51;3.20;;;2.65;;
24261;SDS011;12385;51.412;5.540;2022-08-18T15:22:17;3.85;;;3.03;;
24261;SDS011;12385;51.412;5.540;2022-08-18T15:25:01;5.05;;;3.17;;
24261;SDS011;12385;51.412;5.540;2022-08-18T15:27:44;3.75;;;3.10;;
24261;SDS011;12385;51.412;5.540;2022-08-18T15:30:12;4.82;;;2.50;;
24261;SDS011;12385;51.412;5.540;2022-08-18T15:35:07;4.93;;;3.00;;
24261;SDS011;12385;51.412;5.540;2022-08-18T15:37:33;5.75;;;2.90;;
24261;SDS011;12385;51.412;5.540;2022-08-18T15:40:01;5.63;;;2.85;;
24261;SDS011;12385;51.412;5.540;2022-08-18T15:42:44;3.45;;;2.70;;
24261;SDS011;12385;51.412;5.540;2022-08-18T15:45:22;3.40;;;2.67;;
24261;SDS011;12385;51.412;5.540;2022-08-18T15:47:50;4.60;;;2.90;;
24261;SDS011;12385;51.412;5.540;2022-08-18T15:50:16;6.18;;;2.67;;
24261;SDS011;12385;51.412;5.540;2022-08-18T15:52:58;4.18;;;2.63;;
24261;SDS011;12385;51.412;5.540;2022-08-18T15:55:28;2.88;;;2.58;;
24261;SDS011;12385;51.412;5.540;2022-08-18T15:57:54;5.10;;;3.00;;
24261;SDS011;12385;51.412;5.540;2022-08-18T16:00:21;8.23;;;2.90;;
24261;SDS011;12385;51.412;5.540;2022-08-18T16:02:49;3.55;;;2.92;;
24261;SDS011;12385;51.412;5.540;2022-08-18T16:07:45;3.17;;;2.85;;
24261;SDS011;12385;51.412;5.540;2022-08-18T16:10:12;5.43;;;2.92;;
24261;SDS011;12385;51.412;5.540;2022-08-18T16:12:39;6.07;;;3.17;;
24261;SDS011;12385;51.412;5.540;2022-08-18T16:15:06;4.18;;;3.35;;
24261;SDS011;12385;51.412;5.540;2022-08-18T16:17:33;5.50;;;3.20;;
24261;SDS011;12385;51.412;5.540;2022-08-18T16:19:58;6.53;;;3.40;;
24261;SDS011;12385;51.412;5.540;2022-08-18T16:22:25;6.93;;;3.50;;
24261;SDS011;12385;51.412;5.540;2022-08-18T16:24:52;4.13;;;3.20;;
24261;SDS011;12385;51.412;5.540;2022-08-18T16:27:18;4.07;;;3.38;;
24261;SDS011;12385;51.412;5.540;2022-08-18T16:29:44;5.00;;;3.17;;
24261;SDS011;12385;51.412;5.540;2022-08-18T16:32:10;5.40;;;3.45;;
24261;SDS011;12385;51.412;5.540;2022-08-18T16:34:36;8.00;;;3.17;;
24261;SDS011;12385;51.412;5.540;2022-08-18T16:37:02;5.97;;;3.55;;
24261;SDS011;12385;51.412;5.540;2022-08-18T16:39:28;5.78;;;3.58;;
24261;SDS011;12385;51.412;5.540;2022-08-18T16:41:57;4.20;;;2.83;;
24261;SDS011;12385;51.412;5.540;2022-08-18T16:44:23;5.50;;;3.40;;
24261;SDS011;12385;51.412;5.540;2022-08-18T16:46:48;6.63;;;3.33;;
24261;SDS011;12385;51.412;5.540;2022-08-18T16:49:15;3.70;;;3.30;;
24261;SDS011;12385;51.412;5.540;2022-08-18T16:51:45;4.72;;;3.70;;
24261;SDS011;12385;51.412;5.540;2022-08-18T16:54:11;6.18;;;3.70;;
24261;SDS011;12385;51.412;5.540;2022-08-18T16:56:38;6.38;;;3.60;;
24261;SDS011;12385;51.412;5.540;2022-08-18T16:59:04;5.65;;;3.30;;
24261;SDS011;12385;51.412;5.540;2022-08-18T17:01:49;5.07;;;3.22;;
24261;SDS011;12385;51.412;5.540;2022-08-18T17:04:33;5.30;;;3.92;;
24261;SDS011;12385;51.412;5.540;2022-08-18T17:07:00;5.55;;;4.30;;
24261;SDS011;12385;51.412;5.540;2022-08-18T17:09:28;6.60;;;4.20;;
24261;SDS011;12385;51.412;5.540;2022-08-18T17:11:55;5.75;;;3.72;;
24261;SDS011;12385;51.412;5.540;2022-08-18T17:14:22;4.78;;;3.90;;
24261;SDS011;12385;51.412;5.540;2022-08-18T17:16:49;7.60;;;4.38;;
24261;SDS011;12385;51.412;5.540;2022-08-18T17:19:17;6.70;;;4.40;;
24261;SDS011;12385;51.412;5.540;2022-08-18T17:21:43;6.47;;;4.85;;
24261;SDS011;12385;51.412;5.540;2022-08-18T17:24:10;4.93;;;4.25;;
24261;SDS011;12385;51.412;5.540;2022-08-18T17:26:42;5.55;;;4.15;;
24261;SDS011;12385;51.412;5.540;2022-08-18T17:31:41;5.85;;;4.53;;
24261;SDS011;12385;51.412;5.540;2022-08-18T17:34:10;4.95;;;4.03;;
24261;SDS011;12385;51.412;5.540;2022-08-18T17:36:48;5.43;;;4.75;;
24261;SDS011;12385;51.412;5.540;2022-08-18T17:39:21;7.35;;;4.90;;
24261;SDS011;12385;51.412;5.540;2022-08-18T17:42:17;8.48;;;5.53;;